sensor_id;sensor_type;location;lat;lon;timestamp;temperature;humidity
18794;DHT22;29610;49.022;12.114;2023-03-23T00:00:07;8.00;99.90
18794;DHT22;29610;49.022;12.114;2023-03-23T00:03:03;8.00;99.90
18794;DHT22;29610;49.022;12.114;2023-03-23T00:05:51;9.50;99.90
18794;DHT22;29610;49.022;12.114;2023-03-23T00:08:39;8.10;99.90
18794;DHT22;29610;49.022;12.114;2023-03-23T00:11:33;8.00;99.90
18794;DHT22;29610;49.022;12.114;2023-03-23T00:14:21;8.10;99.90
18794;DHT22;29610;49.022;12.114;2023-03-23T00:17:11;8.00;99.90
18794;DHT22;29610;49.022;12.114;2023-03-23T00:20:02;8.30;99.90
18794;DHT22;29610;49.022;12.114;2023-03-23T00:22:53;8.30;99.90
18794;DHT22;29610;49.022;12.114;2023-03-23T00:25:48;8.40;99.90
18794;DHT22;29610;49.022;12.114;2023-03-23T00:28:41;8.40;99.90
18794;DHT22;29610;49.022;12.114;2023-03-23T00:31:30;8.30;99.90
18794;DHT22;29610;49.022;12.114;2023-03-23T00:34:21;8.30;99.90
18794;DHT22;29610;49.022;12.114;2023-03-23T00:37:12;8.40;99.90
18794;DHT22;29610;49.022;12.114;2023-03-23T00:40:03;8.30;99.90
18794;DHT22;29610;49.022;12.114;2023-03-23T00:42:57;8.30;99.90
18794;DHT22;29610;49.022;12.114;2023-03-23T00:45:46;8.20;99.90
18794;DHT22;29610;49.022;12.114;2023-03-23T00:48:39;8.10;99.90
18794;DHT22;29610;49.022;12.114;2023-03-23T00:51:30;8.10;99.90
18794;DHT22;29610;49.022;12.114;2023-03-23T00:54:20;8.00;99.90
18794;DHT22;29610;49.022;12.114;2023-03-23T00:57:10;8.40;99.90
18794;DHT22;29610;49.022;12.114;2023-03-23T00:59:58;7.90;99.90
18794;DHT22;29610;49.022;12.114;2023-03-23T01:02:47;7.80;99.90
18794;DHT22;29610;49.022;12.114;2023-03-23T01:05:37;7.80;99.90
18794;DHT22;29610;49.022;12.114;2023-03-23T01:08:39;7.90;99.90
18794;DHT22;29610;49.022;12.114;2023-03-23T01:11:33;9.50;99.90
18794;DHT22;29610;49.022;12.114;2023-03-23T01:14:22;8.00;99.90
18794;DHT22;29610;49.022;12.114;2023-03-23T01:17:10;8.00;99.90
18794;DHT22;29610;49.022;12.114;2023-03-23T01:19:58;8.20;99.90
18794;DHT22;29610;49.022;12.114;2023-03-23T01:22:46;8.10;99.90
18794;DHT22;29610;49.022;12.114;2023-03-23T01:25:35;8.10;99.90
18794;DHT22;29610;49.022;12.114;2023-03-23T01:28:25;8.20;99.90
18794;DHT22;29610;49.022;12.114;2023-03-23T01:31:16;8.10;99.90
18794;DHT22;29610;49.022;12.114;2023-03-23T01:34:05;8.00;99.90
18794;DHT22;29610;49.022;12.114;2023-03-23T01:36:54;8.00;99.90
18794;DHT22;29610;49.022;12.114;2023-03-23T01:39:42;8.00;99.90
18794;DHT22;29610;49.022;12.114;2023-03-23T01:42:35;8.00;99.90
18794;DHT22;29610;49.022;12.114;2023-03-23T01:45:32;8.90;99.90
18794;DHT22;29610;49.022;12.114;2023-03-23T01:48:24;8.00;99.90
18794;DHT22;29610;49.022;12.114;2023-03-23T01:51:23;8.00;99.90
18794;DHT22;29610;49.022;12.114;2023-03-23T01:54:14;8.60;99.90
18794;DHT22;29610;49.022;12.114;2023-03-23T01:57:10;7.90;99.90
18794;DHT22;29610;49.022;12.114;2023-03-23T02:00:06;7.90;99.90
18794;DHT22;29610;49.022;12.114;2023-03-23T02:03:03;7.90;99.90
18794;DHT22;29610;49.022;12.114;2023-03-23T02:05:55;8.90;99.90
18794;DHT22;29610;49.022;12.114;2023-03-23T02:09:11;7.80;99.90
18794;DHT22;29610;49.022;12.114;2023-03-23T02:12:05;7.90;99.90
18794;DHT22;29610;49.022;12.114;2023-03-23T02:14:59;7.60;99.90
18794;DHT22;29610;49.022;12.114;2023-03-23T02:17:53;7.70;99.90
18794;DHT22;29610;49.022;12.114;2023-03-23T02:21:25;7.60;99.90
18794;DHT22;29610;49.022;12.114;2023-03-23T02:25:04;7.50;99.90
18794;DHT22;29610;49.022;12.114;2023-03-23T02:28:31;7.50;99.90
18794;DHT22;29610;49.022;12.114;2023-03-23T02:31:45;7.50;99.90
18794;DHT22;29610;49.022;12.114;2023-03-23T02:34:45;7.60;99.90
18794;DHT22;29610;49.022;12.114;2023-03-23T02:37:43;7.60;99.90
18794;DHT22;29610;49.022;12.114;2023-03-23T02:40:39;7.70;99.90
18794;DHT22;29610;49.022;12.114;2023-03-23T02:43:34;6.10;99.90
18794;DHT22;29610;49.022;12.114;2023-03-23T02:46:30;7.70;99.90
18794;DHT22;29610;49.022;12.114;2023-03-23T02:49:19;7.70;99.90
18794;DHT22;29610;49.022;12.114;2023-03-23T02:52:14;7.70;99.90
18794;DHT22;29610;49.022;12.114;2023-03-23T02:55:07;7.90;99.90
18794;DHT22;29610;49.022;12.114;2023-03-23T02:57:58;7.40;99.90
18794;DHT22;29610;49.022;12.114;2023-03-23T03:00:49;8.10;99.90
18794;DHT22;29610;49.022;12.114;2023-03-23T03:03:37;8.10;99.90
18794;DHT22;29610;49.022;12.114;2023-03-23T03:06:30;8.20;99.90
18794;DHT22;29610;49.022;12.114;2023-03-23T03:09:33;8.20;99.90
18794;DHT22;29610;49.022;12.114;2023-03-23T03:12:34;8.30;99.90
18794;DHT22;29610;49.022;12.114;2023-03-23T03:15:36;8.40;99.90
18794;DHT22;29610;49.022;12.114;2023-03-23T03:18:31;8.30;99.90
18794;DHT22;29610;49.022;12.114;2023-03-23T03:21:24;8.30;99.90
18794;DHT22;29610;49.022;12.114;2023-03-23T03:24:19;8.30;99.90
18794;DHT22;29610;49.022;12.114;2023-03-23T03:27:15;8.40;99.90
18794;DHT22;29610;49.022;12.114;2023-03-23T03:30:12;8.50;99.90
18794;DHT22;29610;49.022;12.114;2023-03-23T03:33:04;8.50;99.90
18794;DHT22;29610;49.022;12.114;2023-03-23T03:35:53;9.90;99.90
18794;DHT22;29610;49.022;12.114;2023-03-23T03:38:45;8.50;99.90
18794;DHT22;29610;49.022;12.114;2023-03-23T03:41:38;8.50;99.90
18794;DHT22;29610;49.022;12.114;2023-03-23T03:44:28;8.50;99.90
18794;DHT22;29610;49.022;12.114;2023-03-23T03:47:16;8.50;99.90
18794;DHT22;29610;49.022;12.114;2023-03-23T03:50:05;8.60;99.90
18794;DHT22;29610;49.022;12.114;2023-03-23T03:52:54;8.60;99.90
18794;DHT22;29610;49.022;12.114;2023-03-23T03:55:42;8.60;99.90
18794;DHT22;29610;49.022;12.114;2023-03-23T03:58:36;8.60;99.90
18794;DHT22;29610;49.022;12.114;2023-03-23T04:01:31;8.60;99.90
18794;DHT22;29610;49.022;12.114;2023-03-23T04:04:19;8.50;99.90
18794;DHT22;29610;49.022;12.114;2023-03-23T04:07:08;8.50;99.90
18794;DHT22;29610;49.022;12.114;2023-03-23T04:09:59;8.50;99.90
18794;DHT22;29610;49.022;12.114;2023-03-23T04:12:47;8.60;99.90
18794;DHT22;29610;49.022;12.114;2023-03-23T04:16:05;8.60;99.90
18794;DHT22;29610;49.022;12.114;2023-03-23T04:18:55;8.50;99.90
18794;DHT22;29610;49.022;12.114;2023-03-23T04:21:46;8.60;99.90
18794;DHT22;29610;49.022;12.114;2023-03-23T04:24:36;8.50;99.90
18794;DHT22;29610;49.022;12.114;2023-03-23T04:27:28;8.50;99.90
18794;DHT22;29610;49.022;12.114;2023-03-23T04:30:19;8.50;99.90
18794;DHT22;29610;49.022;12.114;2023-03-23T04:33:15;7.80;99.90
18794;DHT22;29610;49.022;12.114;2023-03-23T04:36:08;8.50;99.90
18794;DHT22;29610;49.022;12.114;2023-03-23T04:39:04;8.50;99.90
18794;DHT22;29610;49.022;12.114;2023-03-23T04:41:55;8.50;99.90
18794;DHT22;29610;49.022;12.114;2023-03-23T04:45:00;8.40;99.90
18794;DHT22;29610;49.022;12.114;2023-03-23T04:47:54;8.30;99.90
18794;DHT22;29610;49.022;12.114;2023-03-23T04:50:52;8.30;99.90
18794;DHT22;29610;49.022;12.114;2023-03-23T04:53:46;8.30;99.90
18794;DHT22;29610;49.022;12.114;2023-03-23T04:56:34;8.30;99.90
18794;DHT22;29610;49.022;12.114;2023-03-23T04:59:29;8.30;99.90
18794;DHT22;29610;49.022;12.114;2023-03-23T05:02:31;8.30;99.90
18794;DHT22;29610;49.022;12.114;2023-03-23T05:05:20;8.30;99.90
18794;DHT22;29610;49.022;12.114;2023-03-23T05:08:14;8.30;99.90
18794;DHT22;29610;49.022;12.114;2023-03-23T05:11:05;8.30;99.90
18794;DHT22;29610;49.022;12.114;2023-03-23T05:13:57;8.30;99.90
18794;DHT22;29610;49.022;12.114;2023-03-23T05:16:45;8.30;99.90
18794;DHT22;29610;49.022;12.114;2023-03-23T05:19:36;8.20;99.90
18794;DHT22;29610;49.022;12.114;2023-03-23T05:22:35;8.20;99.90
18794;DHT22;29610;49.022;12.114;2023-03-23T05:25:26;8.10;99.90
18794;DHT22;29610;49.022;12.114;2023-03-23T05:28:21;8.20;99.90
18794;DHT22;29610;49.022;12.114;2023-03-23T05:31:13;8.10;99.90
18794;DHT22;29610;49.022;12.114;2023-03-23T05:34:02;8.20;99.90
18794;DHT22;29610;49.022;12.114;2023-03-23T05:37:10;8.20;99.90
18794;DHT22;29610;49.022;12.114;2023-03-23T05:40:13;8.20;99.90
18794;DHT22;29610;49.022;12.114;2023-03-23T05:43:07;8.20;99.90
18794;DHT22;29610;49.022;12.114;2023-03-23T05:46:17;8.20;99.90
18794;DHT22;29610;49.022;12.114;2023-03-23T05:49:08;8.30;99.90
18794;DHT22;29610;49.022;12.114;2023-03-23T05:52:00;8.40;99.90
18794;DHT22;29610;49.022;12.114;2023-03-23T05:54:49;8.40;99.90
18794;DHT22;29610;49.022;12.114;2023-03-23T05:57:37;8.50;99.90
18794;DHT22;29610;49.022;12.114;2023-03-23T06:00:32;8.50;99.90
18794;DHT22;29610;49.022;12.114;2023-03-23T06:03:33;8.50;99.90
18794;DHT22;29610;49.022;12.114;2023-03-23T06:06:31;9.30;99.90
18794;DHT22;29610;49.022;12.114;2023-03-23T06:09:25;8.60;99.90
18794;DHT22;29610;49.022;12.114;2023-03-23T06:12:37;8.70;99.90
18794;DHT22;29610;49.022;12.114;2023-03-23T06:15:29;8.80;99.90
18794;DHT22;29610;49.022;12.114;2023-03-23T06:18:55;8.90;99.90
18794;DHT22;29610;49.022;12.114;2023-03-23T06:21:48;9.10;99.60
18794;DHT22;29610;49.022;12.114;2023-03-23T06:24:52;9.40;99.10
18794;DHT22;29610;49.022;12.114;2023-03-23T06:27:46;9.50;98.80
18794;DHT22;29610;49.022;12.114;2023-03-23T06:30:34;9.80;98.40
18794;DHT22;29610;49.022;12.114;2023-03-23T06:33:23;9.80;98.30
18794;DHT22;29610;49.022;12.114;2023-03-23T06:36:39;10.00;97.60
18794;DHT22;29610;49.022;12.114;2023-03-23T06:39:39;10.30;96.80
18794;DHT22;29610;49.022;12.114;2023-03-23T06:42:46;10.50;96.30
18794;DHT22;29610;49.022;12.114;2023-03-23T06:45:59;10.70;95.90
18794;DHT22;29610;49.022;12.114;2023-03-23T06:48:57;11.70;95.80
18794;DHT22;29610;49.022;12.114;2023-03-23T06:51:56;10.90;95.40
18794;DHT22;29610;49.022;12.114;2023-03-23T06:54:46;11.00;94.50
18794;DHT22;29610;49.022;12.114;2023-03-23T06:57:38;11.00;94.20
18794;DHT22;29610;49.022;12.114;2023-03-23T07:00:27;12.60;94.90
18794;DHT22;29610;49.022;12.114;2023-03-23T07:03:16;11.10;94.40
18794;DHT22;29610;49.022;12.114;2023-03-23T07:06:05;11.20;94.20
18794;DHT22;29610;49.022;12.114;2023-03-23T07:09:00;11.20;94.20
18794;DHT22;29610;49.022;12.114;2023-03-23T07:11:54;11.30;94.00
18794;DHT22;29610;49.022;12.114;2023-03-23T07:14:50;11.40;94.10
18794;DHT22;29610;49.022;12.114;2023-03-23T07:17:38;11.30;93.90
18794;DHT22;29610;49.022;12.114;2023-03-23T07:20:36;11.30;93.80
18794;DHT22;29610;49.022;12.114;2023-03-23T07:23:24;11.30;93.80
18794;DHT22;29610;49.022;12.114;2023-03-23T07:26:24;11.20;93.90
18794;DHT22;29610;49.022;12.114;2023-03-23T07:29:15;11.10;94.10
18794;DHT22;29610;49.022;12.114;2023-03-23T07:32:08;11.20;94.20
18794;DHT22;29610;49.022;12.114;2023-03-23T07:34:58;11.40;94.10
18794;DHT22;29610;49.022;12.114;2023-03-23T07:38:12;11.50;93.90
18794;DHT22;29610;49.022;12.114;2023-03-23T07:41:05;11.50;93.90
18794;DHT22;29610;49.022;12.114;2023-03-23T07:43:57;11.60;93.70
18794;DHT22;29610;49.022;12.114;2023-03-23T07:46:54;11.70;93.80
18794;DHT22;29610;49.022;12.114;2023-03-23T07:49:52;11.70;93.90
18794;DHT22;29610;49.022;12.114;2023-03-23T07:52:46;11.70;93.80
18794;DHT22;29610;49.022;12.114;2023-03-23T07:55:37;11.80;93.50
18794;DHT22;29610;49.022;12.114;2023-03-23T07:58:53;11.90;93.20
18794;DHT22;29610;49.022;12.114;2023-03-23T08:01:43;12.20;93.10
18794;DHT22;29610;49.022;12.114;2023-03-23T08:04:49;12.30;93.00
18794;DHT22;29610;49.022;12.114;2023-03-23T08:07:44;12.40;92.80
18794;DHT22;29610;49.022;12.114;2023-03-23T08:11:04;12.40;92.80
18794;DHT22;29610;49.022;12.114;2023-03-23T08:14:13;12.20;92.80
18794;DHT22;29610;49.022;12.114;2023-03-23T08:17:17;12.20;93.00
18794;DHT22;29610;49.022;12.114;2023-03-23T08:20:24;12.20;92.70
18794;DHT22;29610;49.022;12.114;2023-03-23T08:23:24;12.30;93.10
18794;DHT22;29610;49.022;12.114;2023-03-23T08:26:30;12.30;93.00
18794;DHT22;29610;49.022;12.114;2023-03-23T08:29:45;12.60;92.90
18794;DHT22;29610;49.022;12.114;2023-03-23T08:32:55;12.80;92.30
18794;DHT22;29610;49.022;12.114;2023-03-23T08:35:58;12.90;92.00
18794;DHT22;29610;49.022;12.114;2023-03-23T08:39:19;13.10;92.00
18794;DHT22;29610;49.022;12.114;2023-03-23T08:42:20;13.40;91.60
18794;DHT22;29610;49.022;12.114;2023-03-23T08:45:28;13.70;91.40
18794;DHT22;29610;49.022;12.114;2023-03-23T08:48:50;13.90;91.00
18794;DHT22;29610;49.022;12.114;2023-03-23T08:52:03;14.10;90.90
18794;DHT22;29610;49.022;12.114;2023-03-23T08:55:09;14.10;90.60
18794;DHT22;29610;49.022;12.114;2023-03-23T08:58:27;14.20;90.60
18794;DHT22;29610;49.022;12.114;2023-03-23T09:01:15;14.50;90.70
18794;DHT22;29610;49.022;12.114;2023-03-23T09:04:04;14.80;90.30
18794;DHT22;29610;49.022;12.114;2023-03-23T09:07:13;15.00;89.70
18794;DHT22;29610;49.022;12.114;2023-03-23T09:10:01;15.00;89.50
18794;DHT22;29610;49.022;12.114;2023-03-23T09:12:49;15.10;89.00
18794;DHT22;29610;49.022;12.114;2023-03-23T09:15:39;15.10;89.40
18794;DHT22;29610;49.022;12.114;2023-03-23T09:18:27;15.30;88.20
18794;DHT22;29610;49.022;12.114;2023-03-23T09:21:17;15.40;88.10
18794;DHT22;29610;49.022;12.114;2023-03-23T09:24:05;15.50;88.00
18794;DHT22;29610;49.022;12.114;2023-03-23T09:26:53;15.70;87.40
18794;DHT22;29610;49.022;12.114;2023-03-23T09:29:41;16.00;86.50
18794;DHT22;29610;49.022;12.114;2023-03-23T09:32:31;16.20;84.40
18794;DHT22;29610;49.022;12.114;2023-03-23T09:35:20;16.20;84.60
18794;DHT22;29610;49.022;12.114;2023-03-23T09:38:10;16.00;84.60
18794;DHT22;29610;49.022;12.114;2023-03-23T09:41:11;16.10;85.20
18794;DHT22;29610;49.022;12.114;2023-03-23T09:44:19;16.20;83.90
18794;DHT22;29610;49.022;12.114;2023-03-23T09:47:18;16.20;85.00
18794;DHT22;29610;49.022;12.114;2023-03-23T09:50:15;16.60;83.60
18794;DHT22;29610;49.022;12.114;2023-03-23T09:53:12;16.70;81.80
18794;DHT22;29610;49.022;12.114;2023-03-23T09:56:10;16.70;83.00
18794;DHT22;29610;49.022;12.114;2023-03-23T09:59:04;16.50;82.50
18794;DHT22;29610;49.022;12.114;2023-03-23T10:02:16;16.40;82.50
18794;DHT22;29610;49.022;12.114;2023-03-23T10:05:30;16.20;83.80
18794;DHT22;29610;49.022;12.114;2023-03-23T10:08:23;16.50;83.40
18794;DHT22;29610;49.022;12.114;2023-03-23T10:11:21;16.50;84.20
18794;DHT22;29610;49.022;12.114;2023-03-23T10:14:27;16.60;84.80
18794;DHT22;29610;49.022;12.114;2023-03-23T10:17:26;16.40;85.10
18794;DHT22;29610;49.022;12.114;2023-03-23T10:20:23;16.30;85.00
18794;DHT22;29610;49.022;12.114;2023-03-23T10:23:39;16.20;84.60
18794;DHT22;29610;49.022;12.114;2023-03-23T10:26:42;15.80;83.30
18794;DHT22;29610;49.022;12.114;2023-03-23T10:29:42;16.40;84.00
18794;DHT22;29610;49.022;12.114;2023-03-23T10:32:42;16.80;82.90
18794;DHT22;29610;49.022;12.114;2023-03-23T10:35:38;17.20;83.10
18794;DHT22;29610;49.022;12.114;2023-03-23T10:38:37;17.70;81.40
18794;DHT22;29610;49.022;12.114;2023-03-23T10:41:27;18.30;79.60
18794;DHT22;29610;49.022;12.114;2023-03-23T10:44:18;18.60;78.50
18794;DHT22;29610;49.022;12.114;2023-03-23T10:47:08;18.90;77.40
18794;DHT22;29610;49.022;12.114;2023-03-23T10:49:59;19.10;76.50
18794;DHT22;29610;49.022;12.114;2023-03-23T10:52:52;19.10;75.70
18794;DHT22;29610;49.022;12.114;2023-03-23T10:55:43;19.10;76.50
18794;DHT22;29610;49.022;12.114;2023-03-23T10:58:34;19.30;76.60
18794;DHT22;29610;49.022;12.114;2023-03-23T11:01:30;19.70;75.80
18794;DHT22;29610;49.022;12.114;2023-03-23T11:04:19;19.80;74.30
18794;DHT22;29610;49.022;12.114;2023-03-23T11:07:17;20.30;74.30
18794;DHT22;29610;49.022;12.114;2023-03-23T11:10:16;20.60;73.40
18794;DHT22;29610;49.022;12.114;2023-03-23T11:13:14;20.50;73.00
18794;DHT22;29610;49.022;12.114;2023-03-23T11:16:08;20.60;73.40
18794;DHT22;29610;49.022;12.114;2023-03-23T11:18:58;20.70;71.40
18794;DHT22;29610;49.022;12.114;2023-03-23T11:21:50;20.70;71.80
18794;DHT22;29610;49.022;12.114;2023-03-23T11:24:41;20.70;70.90
18794;DHT22;29610;49.022;12.114;2023-03-23T11:27:32;21.10;70.80
18794;DHT22;29610;49.022;12.114;2023-03-23T11:30:26;21.20;70.60
18794;DHT22;29610;49.022;12.114;2023-03-23T11:33:17;21.30;68.20
18794;DHT22;29610;49.022;12.114;2023-03-23T11:36:07;21.70;69.40
18794;DHT22;29610;49.022;12.114;2023-03-23T11:38:56;21.40;66.60
18794;DHT22;29610;49.022;12.114;2023-03-23T11:41:44;21.20;64.70
18794;DHT22;29610;49.022;12.114;2023-03-23T11:44:34;20.70;64.50
18794;DHT22;29610;49.022;12.114;2023-03-23T11:47:58;20.60;63.70
18794;DHT22;29610;49.022;12.114;2023-03-23T11:51:00;21.00;63.80
18794;DHT22;29610;49.022;12.114;2023-03-23T11:53:55;21.30;63.10
18794;DHT22;29610;49.022;12.114;2023-03-23T11:56:48;21.70;61.20
18794;DHT22;29610;49.022;12.114;2023-03-23T11:59:36;21.70;61.30
18794;DHT22;29610;49.022;12.114;2023-03-23T12:02:36;21.20;60.50
18794;DHT22;29610;49.022;12.114;2023-03-23T12:05:51;20.90;61.60
18794;DHT22;29610;49.022;12.114;2023-03-23T12:08:57;20.80;62.00
18794;DHT22;29610;49.022;12.114;2023-03-23T12:12:03;20.90;62.10
18794;DHT22;29610;49.022;12.114;2023-03-23T12:15:04;20.60;62.40
18794;DHT22;29610;49.022;12.114;2023-03-23T12:18:09;20.60;61.80
18794;DHT22;29610;49.022;12.114;2023-03-23T12:21:15;20.80;63.10
18794;DHT22;29610;49.022;12.114;2023-03-23T12:24:20;20.80;62.40
18794;DHT22;29610;49.022;12.114;2023-03-23T12:27:25;20.50;62.70
18794;DHT22;29610;49.022;12.114;2023-03-23T12:30:28;20.20;63.30
18794;DHT22;29610;49.022;12.114;2023-03-23T12:33:27;20.00;63.10
18794;DHT22;29610;49.022;12.114;2023-03-23T12:36:32;19.90;64.40
18794;DHT22;29610;49.022;12.114;2023-03-23T12:39:52;19.80;64.50
18794;DHT22;29610;49.022;12.114;2023-03-23T12:43:00;20.00;64.10
18794;DHT22;29610;49.022;12.114;2023-03-23T12:46:18;19.90;64.20
18794;DHT22;29610;49.022;12.114;2023-03-23T12:49:18;19.70;64.40
18794;DHT22;29610;49.022;12.114;2023-03-23T12:52:16;19.60;65.00
18794;DHT22;29610;49.022;12.114;2023-03-23T12:55:16;19.40;65.30
18794;DHT22;29610;49.022;12.114;2023-03-23T12:58:11;19.20;66.00
18794;DHT22;29610;49.022;12.114;2023-03-23T13:01:06;19.30;66.20
18794;DHT22;29610;49.022;12.114;2023-03-23T13:04:00;19.10;66.30
18794;DHT22;29610;49.022;12.114;2023-03-23T13:06:52;19.30;66.50
18794;DHT22;29610;49.022;12.114;2023-03-23T13:09:47;19.50;66.50
18794;DHT22;29610;49.022;12.114;2023-03-23T13:12:40;19.50;66.20
18794;DHT22;29610;49.022;12.114;2023-03-23T13:15:37;19.80;66.60
18794;DHT22;29610;49.022;12.114;2023-03-23T13:18:38;19.70;66.00
18794;DHT22;29610;49.022;12.114;2023-03-23T13:21:43;19.60;66.30
18794;DHT22;29610;49.022;12.114;2023-03-23T13:24:39;19.20;66.50
18794;DHT22;29610;49.022;12.114;2023-03-23T13:27:34;18.90;68.10
18794;DHT22;29610;49.022;12.114;2023-03-23T13:30:22;19.20;68.90
18794;DHT22;29610;49.022;12.114;2023-03-23T13:33:13;19.70;69.60
18794;DHT22;29610;49.022;12.114;2023-03-23T13:36:05;19.70;70.80
18794;DHT22;29610;49.022;12.114;2023-03-23T13:38:59;19.80;67.80
18794;DHT22;29610;49.022;12.114;2023-03-23T13:42:02;19.90;68.00
18794;DHT22;29610;49.022;12.114;2023-03-23T13:45:17;20.30;66.90
18794;DHT22;29610;49.022;12.114;2023-03-23T13:48:20;20.20;67.20
18794;DHT22;29610;49.022;12.114;2023-03-23T13:51:25;20.40;66.00
18794;DHT22;29610;49.022;12.114;2023-03-23T13:54:30;20.50;65.30
18794;DHT22;29610;49.022;12.114;2023-03-23T13:57:35;20.40;65.90
18794;DHT22;29610;49.022;12.114;2023-03-23T14:00:35;20.70;66.00
18794;DHT22;29610;49.022;12.114;2023-03-23T14:03:36;19.40;64.20
18794;DHT22;29610;49.022;12.114;2023-03-23T14:06:33;20.00;66.00
18794;DHT22;29610;49.022;12.114;2023-03-23T14:09:31;20.00;64.90
18794;DHT22;29610;49.022;12.114;2023-03-23T14:12:23;19.50;66.30
18794;DHT22;29610;49.022;12.114;2023-03-23T14:15:16;19.50;65.00
18794;DHT22;29610;49.022;12.114;2023-03-23T14:18:05;19.50;66.00
18794;DHT22;29610;49.022;12.114;2023-03-23T14:20:52;19.40;65.30
18794;DHT22;29610;49.022;12.114;2023-03-23T14:23:40;19.00;65.80
18794;DHT22;29610;49.022;12.114;2023-03-23T14:26:33;19.00;66.60
18794;DHT22;29610;49.022;12.114;2023-03-23T14:29:23;19.00;67.00
18794;DHT22;29610;49.022;12.114;2023-03-23T14:32:14;18.80;67.10
18794;DHT22;29610;49.022;12.114;2023-03-23T14:35:08;18.70;67.70
18794;DHT22;29610;49.022;12.114;2023-03-23T14:38:03;18.70;67.80
18794;DHT22;29610;49.022;12.114;2023-03-23T14:40:52;18.50;67.90
18794;DHT22;29610;49.022;12.114;2023-03-23T14:43:41;18.40;68.40
18794;DHT22;29610;49.022;12.114;2023-03-23T14:46:30;18.30;69.00
18794;DHT22;29610;49.022;12.114;2023-03-23T14:49:26;18.30;69.00
18794;DHT22;29610;49.022;12.114;2023-03-23T14:52:18;18.30;68.90
18794;DHT22;29610;49.022;12.114;2023-03-23T14:55:12;18.30;68.70
18794;DHT22;29610;49.022;12.114;2023-03-23T14:58:14;18.30;69.20
18794;DHT22;29610;49.022;12.114;2023-03-23T15:01:06;18.20;69.30
18794;DHT22;29610;49.022;12.114;2023-03-23T15:04:00;18.10;69.90
18794;DHT22;29610;49.022;12.114;2023-03-23T15:06:55;18.10;70.30
18794;DHT22;29610;49.022;12.114;2023-03-23T15:09:46;18.10;70.50
18794;DHT22;29610;49.022;12.114;2023-03-23T15:12:35;18.30;69.20
18794;DHT22;29610;49.022;12.114;2023-03-23T15:15:28;18.10;69.40
18794;DHT22;29610;49.022;12.114;2023-03-23T15:18:29;18.20;70.30
18794;DHT22;29610;49.022;12.114;2023-03-23T15:21:22;18.30;69.90
18794;DHT22;29610;49.022;12.114;2023-03-23T15:24:33;18.20;69.80
18794;DHT22;29610;49.022;12.114;2023-03-23T15:27:28;18.90;70.20
18794;DHT22;29610;49.022;12.114;2023-03-23T15:30:30;18.30;70.10
18794;DHT22;29610;49.022;12.114;2023-03-23T15:33:20;18.10;69.90
18794;DHT22;29610;49.022;12.114;2023-03-23T15:36:16;18.10;70.80
18794;DHT22;29610;49.022;12.114;2023-03-23T15:39:06;18.30;70.80
18794;DHT22;29610;49.022;12.114;2023-03-23T15:42:00;18.10;70.40
18794;DHT22;29610;49.022;12.114;2023-03-23T15:44:56;18.30;70.50
18794;DHT22;29610;49.022;12.114;2023-03-23T15:47:57;18.20;71.30
18794;DHT22;29610;49.022;12.114;2023-03-23T15:50:47;18.20;71.50
18794;DHT22;29610;49.022;12.114;2023-03-23T15:53:37;18.10;72.40
18794;DHT22;29610;49.022;12.114;2023-03-23T15:56:26;18.10;71.80
18794;DHT22;29610;49.022;12.114;2023-03-23T15:59:17;18.10;72.60
18794;DHT22;29610;49.022;12.114;2023-03-23T16:02:18;18.00;72.20
18794;DHT22;29610;49.022;12.114;2023-03-23T16:05:12;17.90;72.70
18794;DHT22;29610;49.022;12.114;2023-03-23T16:08:02;17.80;72.40
18794;DHT22;29610;49.022;12.114;2023-03-23T16:10:52;17.80;72.70
18794;DHT22;29610;49.022;12.114;2023-03-23T16:13:41;17.60;72.80
18794;DHT22;29610;49.022;12.114;2023-03-23T16:16:34;17.30;72.80
18794;DHT22;29610;49.022;12.114;2023-03-23T16:19:26;17.30;73.60
18794;DHT22;29610;49.022;12.114;2023-03-23T16:22:15;17.10;74.30
18794;DHT22;29610;49.022;12.114;2023-03-23T16:25:06;17.00;74.60
18794;DHT22;29610;49.022;12.114;2023-03-23T16:27:55;16.90;74.70
18794;DHT22;29610;49.022;12.114;2023-03-23T16:30:45;16.80;75.00
18794;DHT22;29610;49.022;12.114;2023-03-23T16:33:36;16.70;75.30
18794;DHT22;29610;49.022;12.114;2023-03-23T16:36:25;16.60;75.70
18794;DHT22;29610;49.022;12.114;2023-03-23T16:39:14;16.50;75.70
18794;DHT22;29610;49.022;12.114;2023-03-23T16:42:05;16.50;75.80
18794;DHT22;29610;49.022;12.114;2023-03-23T16:44:54;16.40;75.80
18794;DHT22;29610;49.022;12.114;2023-03-23T16:47:43;16.40;76.90
18794;DHT22;29610;49.022;12.114;2023-03-23T16:50:36;16.30;77.00
18794;DHT22;29610;49.022;12.114;2023-03-23T16:53:25;16.20;77.90
18794;DHT22;29610;49.022;12.114;2023-03-23T16:56:14;16.20;78.10
18794;DHT22;29610;49.022;12.114;2023-03-23T16:59:03;16.10;78.30
18794;DHT22;29610;49.022;12.114;2023-03-23T17:01:52;16.00;78.10
18794;DHT22;29610;49.022;12.114;2023-03-23T17:04:43;16.00;78.30
18794;DHT22;29610;49.022;12.114;2023-03-23T17:07:34;15.90;78.60
18794;DHT22;29610;49.022;12.114;2023-03-23T17:10:25;15.80;78.60
18794;DHT22;29610;49.022;12.114;2023-03-23T17:13:15;15.70;78.80
18794;DHT22;29610;49.022;12.114;2023-03-23T17:16:05;15.60;79.20
18794;DHT22;29610;49.022;12.114;2023-03-23T17:18:55;15.50;79.70
18794;DHT22;29610;49.022;12.114;2023-03-23T17:21:44;15.30;80.20
18794;DHT22;29610;49.022;12.114;2023-03-23T17:24:34;15.20;81.80
18794;DHT22;29610;49.022;12.114;2023-03-23T17:27:23;15.20;81.80
18794;DHT22;29610;49.022;12.114;2023-03-23T17:30:12;15.20;82.00
18794;DHT22;29610;49.022;12.114;2023-03-23T17:33:01;15.10;82.00
18794;DHT22;29610;49.022;12.114;2023-03-23T17:35:50;15.10;82.00
18794;DHT22;29610;49.022;12.114;2023-03-23T17:38:40;15.10;82.00
18794;DHT22;29610;49.022;12.114;2023-03-23T17:41:30;15.00;82.60
18794;DHT22;29610;49.022;12.114;2023-03-23T17:44:19;14.90;82.10
18794;DHT22;29610;49.022;12.114;2023-03-23T17:47:08;14.90;82.70
18794;DHT22;29610;49.022;12.114;2023-03-23T17:49:57;14.80;82.70
18794;DHT22;29610;49.022;12.114;2023-03-23T17:52:58;14.70;83.50
18794;DHT22;29610;49.022;12.114;2023-03-23T17:55:47;14.60;84.40
18794;DHT22;29610;49.022;12.114;2023-03-23T17:58:37;14.50;84.10
18794;DHT22;29610;49.022;12.114;2023-03-23T18:01:26;14.50;84.40
18794;DHT22;29610;49.022;12.114;2023-03-23T18:04:16;14.50;84.40
18794;DHT22;29610;49.022;12.114;2023-03-23T18:07:05;14.40;85.00
18794;DHT22;29610;49.022;12.114;2023-03-23T18:09:57;14.30;85.40
18794;DHT22;29610;49.022;12.114;2023-03-23T18:12:48;14.20;87.20
18794;DHT22;29610;49.022;12.114;2023-03-23T18:15:42;14.20;88.60
18794;DHT22;29610;49.022;12.114;2023-03-23T18:18:33;14.10;89.30